createdAt,value
2022-11-16T00:01:24.695Z,10.70
2022-11-16T00:03:52.759Z,10.72
2022-11-16T00:06:20.274Z,10.72
2022-11-16T00:09:09.860Z,10.73
2022-11-16T00:11:37.347Z,10.74
2022-11-16T00:14:05.040Z,10.73
2022-11-16T00:16:32.498Z,10.74
2022-11-16T00:19:01.050Z,10.76
2022-11-16T00:21:27.955Z,10.76
2022-11-16T00:23:54.595Z,10.77
2022-11-16T00:26:21.745Z,10.77
2022-11-16T00:28:48.674Z,10.78
2022-11-16T00:31:15.126Z,10.78
2022-11-16T00:33:41.600Z,10.79
2022-11-16T00:36:10.933Z,10.78
2022-11-16T00:38:37.932Z,10.79
2022-11-16T00:41:05.458Z,10.81
2022-11-16T00:43:31.999Z,10.80
2022-11-16T00:45:58.583Z,10.81
2022-11-16T00:48:25.272Z,10.81
2022-11-16T00:50:51.903Z,10.81
2022-11-16T00:53:20.235Z,10.82
2022-11-16T00:55:47.987Z,10.82
2022-11-16T00:58:16.739Z,10.84
2022-11-16T01:00:45.756Z,10.84
2022-11-16T01:03:12.182Z,10.83
2022-11-16T01:05:39.032Z,10.83
2022-11-16T01:08:07.432Z,10.82
2022-11-16T01:10:34.653Z,10.84
2022-11-16T01:13:01.903Z,10.83
2022-11-16T01:15:28.685Z,10.84
2022-11-16T01:17:56.501Z,10.84
2022-11-16T01:20:28.147Z,10.84
2022-11-16T01:22:54.816Z,10.85
2022-11-16T01:25:21.541Z,10.84
2022-11-16T01:27:48.075Z,10.86
2022-11-16T01:30:21.966Z,10.85
2022-11-16T01:32:58.977Z,10.86
2022-11-16T01:35:25.583Z,10.86
2022-11-16T01:37:52.066Z,10.87
2022-11-16T01:40:18.649Z,10.89
2022-11-16T01:42:45.639Z,10.89
2022-11-16T01:45:37.570Z,10.90
2022-11-16T01:48:07.406Z,10.90
2022-11-16T01:50:34.686Z,10.91
2022-11-16T01:53:05.788Z,10.90
2022-11-16T01:55:43.324Z,10.89
2022-11-16T01:58:24.618Z,10.90
2022-11-16T02:01:05.128Z,10.90
2022-11-16T02:03:41.064Z,10.90
2022-11-16T02:06:27.390Z,10.91
2022-11-16T02:09:42.187Z,10.91
2022-11-16T02:12:29.849Z,10.92
2022-11-16T02:15:08.430Z,10.91
2022-11-16T02:18:04.119Z,10.91
2022-11-16T02:20:53.263Z,10.92
2022-11-16T02:23:35.094Z,10.91
2022-11-16T02:26:38.645Z,10.93
2022-11-16T02:29:20.306Z,10.93
2022-11-16T02:32:04.999Z,10.93
2022-11-16T02:34:36.452Z,10.92
2022-11-16T02:37:06.536Z,10.92
2022-11-16T02:39:34.923Z,10.93
2022-11-16T02:42:05.724Z,10.92
2022-11-16T02:44:40.101Z,10.93
2022-11-16T02:47:14.800Z,10.93
2022-11-16T02:49:47.918Z,10.93
2022-11-16T02:52:15.968Z,10.93
2022-11-16T02:54:42.505Z,10.93
2022-11-16T02:57:09.019Z,10.92
2022-11-16T02:59:41.855Z,10.91
2022-11-16T03:02:17.615Z,10.91
2022-11-16T03:04:49.655Z,10.92
2022-11-16T03:07:20.248Z,10.92
2022-11-16T03:09:49.088Z,10.94
2022-11-16T03:12:22.466Z,10.93
2022-11-16T03:15:01.522Z,10.93
2022-11-16T03:17:37.748Z,10.93
2022-11-16T03:20:07.215Z,10.93
2022-11-16T03:22:41.248Z,10.91
2022-11-16T03:25:11.310Z,10.91
2022-11-16T03:27:41.505Z,10.90
2022-11-16T03:30:12.725Z,10.90
2022-11-16T03:32:50.545Z,10.90
2022-11-16T03:35:30.237Z,10.89
2022-11-16T03:38:00.134Z,10.86
2022-11-16T03:40:31.723Z,10.86
2022-11-16T03:43:01.338Z,10.85
2022-11-16T03:45:30.011Z,10.84
2022-11-16T03:48:21.751Z,10.82
2022-11-16T03:50:49.466Z,10.82
2022-11-16T03:53:16.125Z,10.80
2022-11-16T03:55:48.527Z,10.80
2022-11-16T03:58:18.490Z,10.78
2022-11-16T04:00:45.346Z,10.77
2022-11-16T04:03:11.932Z,10.74
2022-11-16T04:05:57.083Z,10.73
2022-11-16T04:08:43.299Z,10.69
2022-11-16T04:11:32.647Z,10.68
2022-11-16T04:14:18.364Z,10.66
2022-11-16T04:17:03.440Z,10.65
2022-11-16T04:19:48.243Z,10.63
2022-11-16T04:22:49.969Z,10.59
2022-11-16T04:25:23.410Z,10.58
2022-11-16T04:28:09.561Z,10.54
2022-11-16T04:30:54.907Z,10.54
2022-11-16T04:33:47.716Z,10.52
2022-11-16T04:36:32.595Z,10.49
2022-11-16T04:38:59.246Z,10.47
2022-11-16T04:41:44.529Z,10.44
2022-11-16T04:44:10.961Z,10.43
2022-11-16T04:46:56.622Z,10.39
2022-11-16T04:49:23.077Z,10.39
2022-11-16T04:51:49.799Z,10.39
2022-11-16T04:54:16.367Z,10.38
2022-11-16T04:56:43.178Z,10.34
2022-11-16T04:59:09.948Z,10.32
2022-11-16T05:01:55.436Z,10.29
2022-11-16T05:04:21.994Z,10.27
2022-11-16T05:06:48.714Z,10.26
2022-11-16T05:09:15.615Z,10.22
2022-11-16T05:11:42.152Z,10.22
2022-11-16T05:14:10.260Z,10.19
2022-11-16T05:16:38.410Z,10.16
2022-11-16T05:19:23.460Z,10.14
2022-11-16T05:21:50.198Z,10.12
2022-11-16T05:24:35.668Z,10.10
2022-11-16T05:27:09.919Z,10.08
2022-11-16T05:29:37.966Z,10.07
2022-11-16T05:32:05.522Z,10.02
2022-11-16T05:34:32.084Z,10.02
2022-11-16T05:36:59.668Z,9.99
2022-11-16T05:39:27.033Z,9.96
2022-11-16T05:41:54.642Z,9.94
2022-11-16T05:44:22.301Z,9.92
2022-11-16T05:46:50.267Z,9.90
2022-11-16T05:49:18.544Z,9.87
2022-11-16T05:51:47.091Z,9.84
2022-11-16T05:54:19.611Z,9.83
2022-11-16T05:56:47.375Z,9.83
2022-11-16T05:59:16.706Z,9.85
2022-11-16T06:01:47.420Z,9.82
2022-11-16T06:04:14.541Z,9.78
2022-11-16T06:06:41.322Z,9.75
2022-11-16T06:09:09.296Z,9.74
2022-11-16T06:11:38.106Z,9.72
2022-11-16T06:14:06.175Z,9.71
2022-11-16T06:16:34.141Z,9.67
2022-11-16T06:19:04.008Z,9.66
2022-11-16T06:21:30.562Z,9.65
2022-11-16T06:23:56.989Z,9.66
2022-11-16T06:26:23.417Z,9.65
2022-11-16T06:28:49.931Z,9.63
2022-11-16T06:31:16.993Z,9.61
2022-11-16T06:33:44.831Z,9.60
2022-11-16T06:36:17.928Z,9.57
2022-11-16T06:38:44.992Z,9.56
2022-11-16T06:41:12.475Z,9.55
2022-11-16T06:43:44.154Z,9.53
2022-11-16T06:46:10.719Z,9.50
2022-11-16T06:48:39.095Z,9.46
2022-11-16T06:51:10.108Z,9.42
2022-11-16T06:53:36.573Z,9.40
2022-11-16T06:56:05.520Z,9.36
2022-11-16T06:58:37.134Z,9.33
2022-11-16T07:01:10.899Z,9.29
2022-11-16T07:03:39.818Z,9.24
2022-11-16T07:06:12.552Z,9.21
2022-11-16T07:08:41.192Z,9.18
2022-11-16T07:11:10.313Z,9.13
2022-11-16T07:13:38.575Z,9.10
2022-11-16T07:16:11.071Z,9.08
2022-11-16T07:18:42.458Z,9.04
2022-11-16T07:21:12.035Z,8.99
2022-11-16T07:23:38.829Z,8.97
2022-11-16T07:26:09.569Z,8.95
2022-11-16T07:28:48.096Z,8.92
2022-11-16T07:31:18.879Z,8.90
2022-11-16T07:33:45.999Z,8.88
2022-11-16T07:36:35.028Z,8.87
2022-11-16T07:39:03.058Z,8.87
2022-11-16T07:41:29.930Z,8.84
2022-11-16T07:44:12.238Z,8.82
2022-11-16T07:46:48.877Z,8.81
2022-11-16T07:49:18.775Z,8.80
2022-11-16T07:51:52.998Z,8.81
2022-11-16T07:54:33.466Z,8.78
2022-11-16T07:57:00.208Z,8.79
2022-11-16T07:59:28.322Z,8.78
2022-11-16T08:01:59.126Z,8.77
2022-11-16T08:04:26.412Z,8.79
2022-11-16T08:06:53.143Z,8.79
2022-11-16T08:09:21.047Z,8.81
2022-11-16T08:11:50.906Z,8.81
2022-11-16T08:14:19.113Z,8.82
2022-11-16T08:16:47.514Z,8.82
2022-11-16T08:19:14.915Z,8.84
2022-11-16T08:21:41.465Z,8.86
2022-11-16T08:24:08.351Z,8.87
2022-11-16T08:26:38.711Z,8.87
2022-11-16T08:29:09.486Z,8.89
2022-11-16T08:31:39.543Z,8.89
2022-11-16T08:34:11.418Z,8.91
2022-11-16T08:36:41.393Z,8.93
2022-11-16T08:39:08.598Z,8.95
2022-11-16T08:41:35.841Z,8.94
2022-11-16T08:44:02.265Z,8.95
2022-11-16T08:46:30.330Z,8.96
2022-11-16T08:49:07.033Z,9.00
2022-11-16T08:51:33.736Z,9.05
2022-11-16T08:54:05.159Z,9.05
2022-11-16T08:56:32.861Z,9.07
2022-11-16T08:58:59.678Z,9.10
2022-11-16T09:01:29.717Z,9.12
2022-11-16T09:03:56.746Z,9.16
2022-11-16T09:06:25.250Z,9.16
2022-11-16T09:08:52.095Z,9.24
2022-11-16T09:11:21.903Z,9.31
2022-11-16T09:13:50.139Z,9.33
2022-11-16T09:16:17.754Z,9.36
2022-11-16T09:18:46.985Z,9.40
2022-11-16T09:21:21.604Z,9.44
2022-11-16T09:23:48.820Z,9.44
2022-11-16T09:26:15.482Z,9.48
2022-11-16T09:28:42.445Z,9.53
2022-11-16T09:31:10.117Z,9.54
2022-11-16T09:33:37.271Z,9.56
2022-11-16T09:36:07.022Z,9.62
2022-11-16T09:38:55.791Z,9.65
2022-11-16T09:41:38.539Z,9.67
2022-11-16T09:44:18.343Z,9.68
2022-11-16T09:46:48.337Z,9.73
2022-11-16T09:49:23.700Z,9.77
2022-11-16T09:51:57.605Z,9.76
2022-11-16T09:54:28.985Z,9.79
2022-11-16T09:57:00.757Z,9.81
2022-11-16T09:59:29.851Z,9.82
2022-11-16T10:01:58.458Z,9.83
2022-11-16T10:04:58.623Z,9.81
2022-11-16T10:07:41.716Z,9.84
2022-11-16T10:10:14.183Z,9.86
2022-11-16T10:12:47.392Z,9.87
2022-11-16T10:15:38.617Z,9.90
2022-11-16T10:18:20.311Z,9.95
2022-11-16T10:21:03.594Z,9.98
2022-11-16T10:23:51.167Z,9.99
2022-11-16T10:26:20.695Z,10.00
2022-11-16T10:29:24.956Z,10.03
2022-11-16T10:32:06.498Z,10.03
2022-11-16T10:34:54.149Z,10.04
2022-11-16T10:37:22.255Z,10.05
2022-11-16T10:39:51.300Z,10.06
2022-11-16T10:42:41.683Z,10.12
2022-11-16T10:45:11.280Z,10.17
2022-11-16T10:47:54.721Z,10.14
2022-11-16T10:50:26.922Z,10.18
2022-11-16T10:52:53.313Z,10.24
2022-11-16T10:55:21.693Z,10.31
2022-11-16T10:57:57.928Z,10.29
2022-11-16T11:00:34.671Z,10.30
2022-11-16T11:03:01.131Z,10.41
2022-11-16T11:05:27.713Z,10.48
2022-11-16T11:08:06.428Z,10.46
2022-11-16T11:10:36.244Z,10.41
2022-11-16T11:13:04.993Z,10.47
2022-11-16T11:15:32.148Z,10.59
2022-11-16T11:18:20.488Z,10.63
2022-11-16T11:20:50.283Z,10.60
2022-11-16T11:23:26.169Z,10.60
2022-11-16T11:26:00.482Z,10.63
2022-11-16T11:28:32.674Z,10.61
2022-11-16T11:31:03.148Z,10.54
2022-11-16T11:33:37.522Z,10.51
2022-11-16T11:36:19.753Z,10.51
2022-11-16T11:39:03.635Z,10.58
2022-11-16T11:42:07.030Z,10.60
2022-11-16T11:44:49.819Z,10.58
2022-11-16T11:50:44.526Z,10.61
2022-11-16T11:53:34.575Z,10.65
2022-11-16T11:56:01.414Z,10.66
2022-11-16T11:58:35.523Z,10.61
2022-11-16T12:01:38.707Z,10.56
2022-11-16T12:04:07.572Z,10.58
2022-11-16T12:06:57.503Z,10.67
2022-11-16T12:09:37.835Z,10.72
2022-11-16T12:12:25.651Z,10.76
2022-11-16T12:15:05.734Z,10.75
2022-11-16T12:17:46.941Z,10.75
2022-11-16T12:20:22.600Z,10.79
2022-11-16T12:23:02.589Z,10.80
2022-11-16T12:25:54.549Z,10.78
2022-11-16T12:28:50.903Z,10.82
2022-11-16T12:31:56.982Z,10.83
2022-11-16T12:34:41.877Z,10.90
2022-11-16T12:37:25.913Z,10.90
2022-11-16T12:40:30.180Z,10.93
2022-11-16T12:43:20.908Z,11.04
2022-11-16T12:46:28.914Z,11.14
2022-11-16T12:49:07.300Z,11.16
2022-11-16T12:51:55.955Z,11.12
2022-11-16T12:55:11.028Z,11.06
2022-11-16T12:57:53.176Z,11.02
2022-11-16T13:00:20.115Z,10.97
2022-11-16T13:03:05.144Z,10.95
2022-11-16T13:05:53.834Z,10.95
2022-11-16T13:08:47.538Z,10.95
2022-11-16T13:11:29.711Z,10.94
2022-11-16T13:14:01.475Z,10.94
2022-11-16T13:16:28.948Z,10.92
2022-11-16T13:18:56.523Z,10.93
2022-11-16T13:22:04.245Z,10.96
2022-11-16T13:24:45.671Z,10.97
2022-11-16T13:27:38.982Z,10.93
2022-11-16T13:30:28.838Z,10.93
2022-11-16T13:33:13.854Z,10.92
2022-11-16T13:35:40.236Z,10.92
2022-11-16T13:38:13.610Z,10.90
2022-11-16T13:40:40.802Z,10.88
2022-11-16T13:43:17.674Z,10.83
2022-11-16T13:45:50.217Z,10.79
2022-11-16T13:48:24.176Z,10.76
2022-11-16T13:50:54.559Z,10.73
2022-11-16T13:56:20.902Z,10.74
2022-11-16T13:58:51.712Z,10.75
2022-11-16T14:01:18.935Z,10.77
2022-11-16T14:03:51.394Z,10.78
2022-11-16T14:06:23.839Z,10.80
2022-11-16T14:08:51.720Z,10.81
2022-11-16T14:11:32.414Z,10.83
2022-11-16T14:14:06.287Z,10.85
2022-11-16T14:16:44.078Z,10.83
2022-11-16T14:19:44.451Z,10.81
2022-11-16T14:22:25.536Z,10.78
2022-11-16T14:25:01.344Z,10.72
2022-11-16T14:27:58.050Z,10.66
2022-11-16T14:30:59.783Z,10.61
2022-11-16T14:33:33.881Z,10.57
2022-11-16T14:36:03.432Z,10.53
2022-11-16T14:38:33.555Z,10.51
2022-11-16T14:41:04.257Z,10.49
2022-11-16T14:43:40.522Z,10.52
2022-11-16T14:46:20.735Z,10.58
2022-11-16T14:48:47.852Z,10.61
2022-11-16T14:51:21.168Z,10.60
2022-11-16T14:53:52.267Z,10.57
2022-11-16T14:56:19.673Z,10.51
2022-11-16T14:58:55.907Z,10.47
2022-11-16T15:01:28.742Z,10.44
2022-11-16T15:04:04.427Z,10.40
2022-11-16T15:06:48.153Z,10.35
2022-11-16T15:09:23.967Z,10.30
2022-11-16T15:12:10.815Z,10.25
2022-11-16T15:14:44.086Z,10.21
2022-11-16T15:17:16.241Z,10.17
2022-11-16T15:19:42.650Z,10.12
2022-11-16T15:22:17.856Z,10.09
2022-11-16T15:24:44.309Z,10.04
2022-11-16T15:27:40.520Z,9.99
2022-11-16T15:30:16.600Z,9.95
2022-11-16T15:32:44.779Z,9.90
2022-11-16T15:35:32.037Z,9.86
2022-11-16T15:38:24.859Z,9.81
2022-11-16T15:41:03.163Z,9.75
2022-11-16T15:43:32.984Z,9.71
2022-11-16T15:46:01.222Z,9.66
2022-11-16T15:48:28.528Z,9.62
2022-11-16T15:51:05.040Z,9.59
2022-11-16T15:53:46.467Z,9.57
2022-11-16T15:56:30.083Z,9.55
2022-11-16T15:59:09.204Z,9.51
2022-11-16T16:01:44.362Z,9.47
2022-11-16T16:04:17.213Z,9.42
2022-11-16T16:06:50.516Z,9.40
2022-11-16T16:09:19.794Z,9.35
2022-11-16T16:11:46.386Z,9.33
2022-11-16T16:14:25.442Z,9.31
2022-11-16T16:16:54.656Z,9.26
2022-11-16T16:19:33.831Z,9.21
2022-11-16T16:22:00.831Z,9.19
2022-11-16T16:24:38.832Z,9.15
2022-11-16T16:27:22.869Z,9.14
2022-11-16T16:29:51.811Z,9.11
2022-11-16T16:32:26.101Z,9.10
2022-11-16T16:34:53.820Z,9.10
2022-11-16T16:37:20.386Z,9.08
2022-11-16T16:39:46.823Z,9.06
2022-11-16T16:42:15.548Z,9.03
2022-11-16T16:44:43.503Z,9.02
2022-11-16T16:47:10.643Z,9.00
2022-11-16T16:49:37.330Z,8.99
2022-11-16T16:52:04.959Z,8.99
2022-11-16T16:54:31.465Z,8.98
2022-11-16T16:56:58.350Z,8.95
2022-11-16T16:59:24.937Z,8.92
2022-11-16T17:01:51.714Z,8.91
2022-11-16T17:04:18.337Z,8.88
2022-11-16T17:06:46.561Z,8.87
2022-11-16T17:09:13.511Z,8.84
2022-11-16T17:11:39.992Z,8.83
2022-11-16T17:14:07.732Z,8.81
2022-11-16T17:16:37.325Z,8.78
2022-11-16T17:19:04.658Z,8.75
2022-11-16T17:21:31.609Z,8.73
2022-11-16T17:23:58.084Z,8.69
2022-11-16T17:26:29.047Z,8.66
2022-11-16T17:28:56.933Z,8.63
2022-11-16T17:31:24.617Z,8.60
2022-11-16T17:33:51.559Z,8.58
2022-11-16T17:36:18.685Z,8.55
2022-11-16T17:38:45.526Z,8.53
2022-11-16T17:41:19.014Z,8.50
2022-11-16T17:43:46.791Z,8.49
2022-11-16T17:46:15.733Z,8.45
2022-11-16T17:48:43.707Z,8.41
2022-11-16T17:51:15.643Z,8.39
2022-11-16T17:53:44.190Z,8.38
2022-11-16T17:56:11.803Z,8.36
2022-11-16T17:58:38.495Z,8.32
2022-11-16T18:01:05.239Z,8.30
2022-11-16T18:03:32.209Z,8.29
2022-11-16T18:06:13.787Z,8.28
2022-11-16T18:08:42.825Z,8.30
2022-11-16T18:11:11.692Z,8.30
2022-11-16T18:16:43.295Z,8.34
2022-11-16T18:19:14.749Z,8.37
2022-11-16T18:21:42.011Z,8.40
2022-11-16T18:24:09.248Z,8.42
2022-11-16T18:26:35.878Z,8.45
2022-11-16T18:29:02.396Z,8.47
2022-11-16T18:31:29.744Z,8.50
2022-11-16T18:33:56.190Z,8.55
2022-11-16T18:36:22.929Z,8.55
2022-11-16T18:38:49.508Z,8.54
2022-11-16T18:41:19.908Z,8.54
2022-11-16T18:43:58.544Z,8.56
2022-11-16T18:46:27.190Z,8.54
2022-11-16T18:48:54.390Z,8.55
2022-11-16T18:51:21.713Z,8.55
2022-11-16T18:53:48.334Z,8.57
2022-11-16T18:56:15.980Z,8.59
2022-11-16T18:58:50.216Z,8.60
2022-11-16T19:01:19.204Z,8.61
2022-11-16T19:03:46.036Z,8.61
2022-11-16T19:06:14.723Z,8.64
2022-11-16T19:08:42.135Z,8.67
2022-11-16T19:11:15.945Z,8.68
2022-11-16T19:13:43.665Z,8.71
2022-11-16T19:16:12.348Z,8.72
2022-11-16T19:18:39.241Z,8.73
2022-11-16T19:21:11.283Z,8.74
2022-11-16T19:23:39.875Z,8.74
2022-11-16T19:26:07.343Z,8.73
2022-11-16T19:28:40.846Z,8.74
2022-11-16T19:31:15.255Z,8.74
2022-11-16T19:33:41.973Z,8.73
2022-11-16T19:36:13.481Z,8.75
2022-11-16T19:38:40.480Z,8.75
2022-11-16T19:41:08.108Z,8.77
2022-11-16T19:43:35.044Z,8.76
2022-11-16T19:46:03.926Z,8.76
2022-11-16T19:48:32.254Z,8.78
2022-11-16T19:51:13.133Z,8.81
2022-11-16T19:53:40.384Z,8.81
2022-11-16T19:56:10.141Z,8.83
2022-11-16T19:58:38.285Z,8.83
2022-11-16T20:01:08.021Z,8.85
2022-11-16T20:03:35.007Z,8.86
2022-11-16T20:06:09.044Z,8.87
2022-11-16T20:08:36.876Z,8.87
2022-11-16T20:11:12.057Z,8.88
2022-11-16T20:13:38.670Z,8.88
2022-11-16T20:16:07.172Z,8.89
2022-11-16T20:18:33.608Z,8.88
2022-11-16T20:21:01.761Z,8.88
2022-11-16T20:23:28.941Z,8.89
2022-11-16T20:25:55.321Z,8.89
2022-11-16T20:28:21.727Z,8.91
2022-11-16T20:30:48.818Z,8.90
2022-11-16T20:33:15.261Z,8.92
2022-11-16T20:35:41.791Z,8.94
2022-11-16T20:38:08.250Z,8.98
2022-11-16T20:40:34.707Z,9.00
2022-11-16T20:43:01.401Z,9.02
2022-11-16T20:45:27.939Z,9.03
2022-11-16T20:47:54.403Z,9.03
2022-11-16T20:50:20.803Z,9.06
2022-11-16T20:52:52.413Z,9.05
2022-11-16T20:55:19.236Z,9.06
2022-11-16T20:57:45.621Z,9.09
2022-11-16T21:00:12.958Z,9.10
2022-11-16T21:02:39.376Z,9.12
2022-11-16T21:05:06.182Z,9.14
2022-11-16T21:07:32.817Z,9.14
2022-11-16T21:10:17.792Z,9.15
2022-11-16T21:13:03.160Z,9.16
2022-11-16T21:15:29.603Z,9.17
2022-11-16T21:17:56.011Z,9.18
2022-11-16T21:20:29.703Z,9.18
2022-11-16T21:22:56.167Z,9.19
2022-11-16T21:25:22.573Z,9.17
2022-11-16T21:27:49.044Z,9.16
2022-11-16T21:30:15.897Z,9.15
2022-11-16T21:32:42.331Z,9.17
2022-11-16T21:35:09.013Z,9.17
2022-11-16T21:37:35.470Z,9.18
2022-11-16T21:40:01.896Z,9.18
2022-11-16T21:42:28.268Z,9.17
2022-11-16T21:44:54.655Z,9.18
2022-11-16T21:47:21.281Z,9.19
2022-11-16T21:50:16.846Z,9.18
2022-11-16T21:52:34.120Z,9.17
2022-11-16T21:55:00.533Z,9.16
2022-11-16T21:57:27.198Z,9.16
2022-11-16T21:59:54.167Z,9.16
2022-11-16T22:02:20.555Z,9.15
2022-11-16T22:05:05.707Z,9.15
2022-11-16T22:07:38.059Z,9.17
2022-11-16T22:10:07.848Z,9.18
2022-11-16T22:12:35.259Z,9.17
2022-11-16T22:15:02.854Z,9.16
2022-11-16T22:17:29.596Z,9.16
2022-11-16T22:19:56.121Z,9.16
2022-11-16T22:22:23.279Z,9.16
2022-11-16T22:24:50.446Z,9.16
2022-11-16T22:27:18.655Z,9.15
2022-11-16T22:29:45.192Z,9.15
2022-11-16T22:32:11.730Z,9.16
2022-11-16T22:34:38.216Z,9.15
2022-11-16T22:37:04.690Z,9.17
2022-11-16T22:39:31.152Z,9.17
2022-11-16T22:41:57.735Z,9.17
2022-11-16T22:44:24.121Z,9.19
2022-11-16T22:46:52.203Z,9.18
2022-11-16T22:49:19.314Z,9.20
2022-11-16T22:51:45.830Z,9.20
2022-11-16T22:54:12.984Z,9.20
2022-11-16T22:56:39.442Z,9.19
2022-11-16T22:59:06.212Z,9.17
2022-11-16T23:01:33.002Z,9.15
2022-11-16T23:03:59.444Z,9.16
2022-11-16T23:06:25.911Z,9.16
2022-11-16T23:08:52.348Z,9.15
2022-11-16T23:11:42.903Z,9.14
2022-11-16T23:14:33.876Z,9.13
2022-11-16T23:17:01.217Z,9.13
2022-11-16T23:19:46.169Z,9.13
2022-11-16T23:22:36.846Z,9.13
2022-11-16T23:25:23.223Z,9.12
2022-11-16T23:27:52.354Z,9.11
2022-11-16T23:30:18.881Z,9.10
2022-11-16T23:32:45.422Z,9.09
2022-11-16T23:35:12.572Z,9.10
2022-11-16T23:38:02.229Z,9.08
2022-11-16T23:40:37.814Z,9.08
2022-11-16T23:43:23.977Z,9.05
2022-11-16T23:45:51.088Z,9.05
2022-11-16T23:48:18.391Z,9.05
2022-11-16T23:50:45.881Z,9.05
2022-11-16T23:53:12.703Z,9.03
2022-11-16T23:55:39.866Z,9.02
2022-11-16T23:58:07.670Z,9.02
